createdAt,value
2018-08-03T00:00:00.414Z,23.08
2018-08-03T00:02:29.105Z,23.02
2018-08-03T00:04:57.739Z,22.96
2018-08-03T00:07:26.561Z,22.89
2018-08-03T00:09:55.352Z,22.85
2018-08-03T00:12:24.059Z,22.82
2018-08-03T00:14:52.798Z,22.90
2018-08-03T00:17:21.513Z,22.90
2018-08-03T00:19:50.177Z,22.88
2018-08-03T00:22:18.869Z,22.88
2018-08-03T00:24:47.644Z,22.89
2018-08-03T00:27:16.369Z,22.89
2018-08-03T00:29:45.132Z,22.88
2018-08-03T00:32:13.955Z,23.09
2018-08-03T00:34:42.829Z,23.03
2018-08-03T00:37:11.622Z,22.98
2018-08-03T00:39:40.388Z,23.06
2018-08-03T00:42:09.198Z,23.13
2018-08-03T00:44:37.994Z,23.10
2018-08-03T00:47:06.767Z,23.12
2018-08-03T00:49:35.517Z,23.31
2018-08-03T00:52:04.267Z,23.54
2018-08-03T00:54:33.109Z,23.76
2018-08-03T00:57:01.845Z,23.84
2018-08-03T00:59:30.594Z,23.87
2018-08-03T01:01:59.255Z,23.88
2018-08-03T01:04:27.982Z,23.95
2018-08-03T01:06:56.698Z,24.03
2018-08-03T01:09:25.438Z,24.03
2018-08-03T01:11:54.129Z,24.03
2018-08-03T01:14:22.901Z,23.92
2018-08-03T01:16:51.678Z,23.92
2018-08-03T01:19:20.450Z,24.07
2018-08-03T01:21:49.218Z,24.07
2018-08-03T01:24:17.949Z,24.07
2018-08-03T01:26:46.741Z,24.03
2018-08-03T01:29:15.491Z,24.00
2018-08-03T01:31:44.312Z,24.10
2018-08-03T01:34:13.162Z,24.11
2018-08-03T01:36:41.889Z,24.13
2018-08-03T01:39:10.626Z,23.97
2018-08-03T01:41:39.350Z,23.90
2018-08-03T01:44:08.145Z,23.82
2018-08-03T01:46:36.863Z,23.83
2018-08-03T01:49:05.596Z,23.78
2018-08-03T01:51:34.329Z,23.96
2018-08-03T01:54:03.042Z,23.77
2018-08-03T01:56:31.811Z,23.84
2018-08-03T01:59:00.558Z,23.85
2018-08-03T02:01:29.295Z,23.78
2018-08-03T02:03:58.004Z,23.87
2018-08-03T02:06:28.775Z,23.85
2018-08-03T02:08:57.538Z,23.77
2018-08-03T02:11:31.698Z,23.62
2018-08-03T02:14:00.433Z,23.72
2018-08-03T02:16:29.182Z,23.82
2018-08-03T02:18:57.901Z,23.77
2018-08-03T02:21:26.645Z,23.92
2018-08-03T02:23:55.393Z,23.88
2018-08-03T02:26:24.180Z,23.82
2018-08-03T02:28:53.342Z,23.99
2018-08-03T02:31:22.095Z,23.87
2018-08-03T02:33:51.098Z,23.70
2018-08-03T02:36:19.821Z,23.55
2018-08-03T02:38:48.567Z,23.46
2018-08-03T02:41:17.311Z,23.35
2018-08-03T02:43:46.016Z,23.34
2018-08-03T02:46:14.815Z,23.42
2018-08-03T02:48:43.561Z,23.48
2018-08-03T02:51:12.291Z,23.47
2018-08-03T02:53:41.019Z,23.42
2018-08-03T02:56:09.725Z,23.43
2018-08-03T02:58:38.479Z,23.36
2018-08-03T03:01:07.425Z,23.33
2018-08-03T03:03:36.224Z,23.56
2018-08-03T03:06:05.055Z,23.62
2018-08-03T03:08:33.800Z,23.55
2018-08-03T03:11:02.530Z,23.48
2018-08-03T03:13:31.311Z,23.42
2018-08-03T03:16:00.063Z,23.46
2018-08-03T03:18:28.769Z,23.41
2018-08-03T03:20:57.604Z,23.33
2018-08-03T03:23:26.446Z,23.45
2018-08-03T03:25:55.169Z,23.35
2018-08-03T03:28:23.937Z,23.31
2018-08-03T03:30:52.667Z,23.30
2018-08-03T03:33:21.415Z,23.46
2018-08-03T03:35:50.123Z,23.42
2018-08-03T03:38:18.877Z,23.32
2018-08-03T03:40:47.611Z,23.34
2018-08-03T03:43:16.404Z,23.45
2018-08-03T03:45:45.199Z,23.48
2018-08-03T03:48:13.994Z,23.64
2018-08-03T03:50:42.746Z,23.46
2018-08-03T03:53:11.646Z,23.43
2018-08-03T03:55:40.411Z,23.43
2018-08-03T03:58:09.227Z,23.41
2018-08-03T04:00:37.942Z,23.42
2018-08-03T04:03:06.702Z,23.44
2018-08-03T04:05:35.407Z,23.58
2018-08-03T04:08:04.197Z,23.56
2018-08-03T04:10:32.921Z,23.54
2018-08-03T04:13:01.702Z,23.57
2018-08-03T04:15:30.420Z,23.61
2018-08-03T04:17:59.135Z,23.77
2018-08-03T04:20:27.898Z,23.73
2018-08-03T04:22:56.598Z,23.73
2018-08-03T04:25:25.591Z,23.80
2018-08-03T04:27:54.379Z,23.82
2018-08-03T04:30:23.053Z,23.85
2018-08-03T04:32:51.660Z,23.93
2018-08-03T04:35:20.413Z,23.90
2018-08-03T04:37:49.126Z,24.00
2018-08-03T04:40:17.879Z,23.99
2018-08-03T04:42:46.577Z,24.11
2018-08-03T04:45:15.295Z,24.18
2018-08-03T04:47:44.043Z,24.23
2018-08-03T04:50:12.733Z,24.32
2018-08-03T04:52:41.446Z,24.28
2018-08-03T04:55:10.490Z,24.32
2018-08-03T04:57:39.449Z,24.41
2018-08-03T05:00:08.337Z,24.27
2018-08-03T05:02:38.619Z,24.31
2018-08-03T05:05:07.473Z,24.36
2018-08-03T05:07:36.173Z,24.33
2018-08-03T05:10:05.337Z,24.47
2018-08-03T05:12:34.123Z,24.59
2018-08-03T05:15:02.810Z,24.56
2018-08-03T05:17:31.540Z,24.60
2018-08-03T05:20:00.285Z,24.51
2018-08-03T05:22:29.066Z,24.59
2018-08-03T05:24:57.742Z,24.65
2018-08-03T05:27:26.478Z,24.69
2018-08-03T05:29:55.248Z,24.68
2018-08-03T05:32:23.998Z,24.71
2018-08-03T05:34:52.706Z,24.61
2018-08-03T05:37:21.419Z,24.66
2018-08-03T05:39:50.277Z,24.78
2018-08-03T05:42:19.178Z,24.82
2018-08-03T05:44:47.908Z,24.93
2018-08-03T05:47:16.827Z,25.06
2018-08-03T05:49:45.654Z,25.16
2018-08-03T05:52:14.505Z,25.30
2018-08-03T05:54:43.298Z,25.34
2018-08-03T05:57:12.083Z,25.49
2018-08-03T05:59:41.097Z,25.57
2018-08-03T06:02:10.079Z,25.45
2018-08-03T06:04:38.921Z,25.68
2018-08-03T06:07:08.685Z,25.84
2018-08-03T06:09:37.515Z,26.00
2018-08-03T06:12:06.290Z,26.10
2018-08-03T06:14:35.072Z,26.23
2018-08-03T06:17:03.925Z,26.24
2018-08-03T06:19:33.429Z,26.41
2018-08-03T06:22:02.277Z,26.51
2018-08-03T06:24:31.378Z,26.57
2018-08-03T06:27:00.397Z,26.56
2018-08-03T06:29:29.329Z,26.58
2018-08-03T06:31:58.062Z,26.61
2018-08-03T06:34:26.845Z,26.82
2018-08-03T06:36:55.692Z,27.03
2018-08-03T06:39:24.542Z,27.11
2018-08-03T06:41:53.569Z,27.07
2018-08-03T06:44:22.611Z,27.06
2018-08-03T06:46:51.432Z,27.22
2018-08-03T06:49:20.182Z,27.33
2018-08-03T06:51:49.006Z,27.41
2018-08-03T06:54:19.430Z,27.47
2018-08-03T06:56:48.334Z,27.41
2018-08-03T06:59:17.178Z,27.49
2018-08-03T07:01:46.226Z,27.56
2018-08-03T07:04:15.369Z,27.69
2018-08-03T07:06:44.130Z,27.71
2018-08-03T07:09:13.432Z,27.74
2018-08-03T07:11:42.094Z,27.88
2018-08-03T07:14:11.041Z,28.07
2018-08-03T07:16:40.114Z,28.36
2018-08-03T07:19:08.908Z,28.30
2018-08-03T07:21:37.581Z,28.38
2018-08-03T07:24:06.775Z,28.39
2018-08-03T07:26:35.639Z,28.50
2018-08-03T07:29:04.576Z,28.55
2018-08-03T07:31:38.464Z,28.45
2018-08-03T07:34:08.188Z,28.52
2018-08-03T07:36:37.126Z,28.18
2018-08-03T07:39:07.725Z,28.23
2018-08-03T07:41:36.542Z,28.09
2018-08-03T07:44:05.603Z,27.95
2018-08-03T07:46:34.436Z,27.96
2018-08-03T07:49:03.202Z,27.98
2018-08-03T07:51:31.975Z,27.99
2018-08-03T07:54:00.799Z,28.15
2018-08-03T07:56:29.575Z,28.26
2018-08-03T07:58:58.342Z,28.41
2018-08-03T08:01:27.090Z,28.52
2018-08-03T08:03:55.939Z,28.61
2018-08-03T08:06:24.870Z,28.59
2018-08-03T08:08:53.630Z,28.75
2018-08-03T08:11:22.449Z,28.93
2018-08-03T08:13:51.167Z,29.16
2018-08-03T08:16:19.862Z,29.20
2018-08-03T08:18:48.550Z,29.19
2018-08-03T08:21:17.257Z,29.25
2018-08-03T08:23:46.042Z,29.30
2018-08-03T08:26:14.892Z,29.17
2018-08-03T08:28:43.517Z,29.11
2018-08-03T08:31:12.326Z,29.12
2018-08-03T08:33:41.006Z,29.42
2018-08-03T08:36:09.906Z,29.48
2018-08-03T08:38:38.693Z,29.69
2018-08-03T08:41:07.751Z,29.67
2018-08-03T08:43:36.594Z,29.40
2018-08-03T08:46:05.161Z,29.47
2018-08-03T08:48:33.831Z,29.75
2018-08-03T08:51:02.587Z,29.63
2018-08-03T08:53:31.529Z,29.43
2018-08-03T08:56:00.307Z,29.44
2018-08-03T08:58:29.069Z,29.66
2018-08-03T09:00:57.836Z,29.78
2018-08-03T09:03:26.667Z,29.60
2018-08-03T09:05:55.731Z,29.58
2018-08-03T09:08:24.833Z,29.68
2018-08-03T09:10:54.984Z,29.75
2018-08-03T09:13:24.599Z,29.86
2018-08-03T09:15:55.310Z,29.94
2018-08-03T09:18:24.900Z,30.14
2018-08-03T09:20:55.662Z,30.03
2018-08-03T09:23:25.581Z,30.11
2018-08-03T09:25:56.097Z,30.08
2018-08-03T09:28:25.901Z,30.11
2018-08-03T09:30:57.470Z,30.06
2018-08-03T09:33:27.659Z,30.08
2018-08-03T09:35:56.471Z,30.08
2018-08-03T09:38:26.239Z,30.24
2018-08-03T09:40:56.587Z,30.30
2018-08-03T09:43:25.378Z,30.30
2018-08-03T09:45:54.017Z,30.36
2018-08-03T09:48:22.767Z,30.29
2018-08-03T09:50:51.495Z,30.59
2018-08-03T09:53:20.228Z,30.73
2018-08-03T09:55:49.088Z,30.84
2018-08-03T09:58:17.909Z,30.92
2018-08-03T10:00:51.875Z,31.06
2018-08-03T10:03:20.612Z,31.17
2018-08-03T10:05:49.281Z,31.12
2018-08-03T10:08:17.969Z,31.07
2018-08-03T10:10:46.609Z,31.25
2018-08-03T10:13:16.172Z,31.05
2018-08-03T10:15:44.949Z,31.02
2018-08-03T10:18:13.674Z,31.25
2018-08-03T10:20:42.407Z,31.44
2018-08-03T10:23:11.149Z,31.62
2018-08-03T10:25:39.905Z,31.68
2018-08-03T10:28:08.638Z,31.61
2018-08-03T10:30:38.604Z,31.56
2018-08-03T10:33:07.836Z,31.74
2018-08-03T10:35:36.574Z,31.75
2018-08-03T10:38:05.210Z,31.93
2018-08-03T10:40:33.941Z,31.84
2018-08-03T10:43:02.822Z,31.78
2018-08-03T10:45:31.555Z,32.22
2018-08-03T10:48:00.372Z,32.35
2018-08-03T10:50:29.203Z,32.18
2018-08-03T10:53:02.431Z,32.47
2018-08-03T10:55:34.517Z,32.49
2018-08-03T10:58:03.541Z,32.72
2018-08-03T11:00:32.884Z,32.54
2018-08-03T11:03:01.842Z,33.05
2018-08-03T11:05:30.749Z,32.58
2018-08-03T11:07:59.437Z,32.70
2018-08-03T11:10:28.588Z,32.46
2018-08-03T11:12:57.417Z,32.71
2018-08-03T11:15:26.189Z,33.06
2018-08-03T11:17:54.931Z,33.01
2018-08-03T11:20:23.767Z,33.20
2018-08-03T11:22:52.471Z,33.27
2018-08-03T11:25:21.300Z,33.59
2018-08-03T11:27:50.024Z,33.70
2018-08-03T11:30:18.851Z,33.55
2018-08-03T11:32:47.539Z,33.88
2018-08-03T11:35:17.525Z,34.01
2018-08-03T11:37:52.854Z,33.88
2018-08-03T11:40:21.613Z,33.70
2018-08-03T11:42:50.340Z,33.75
2018-08-03T11:45:19.218Z,33.61
2018-08-03T11:47:48.163Z,33.67
2018-08-03T11:50:17.128Z,33.68
2018-08-03T11:52:45.836Z,33.84
2018-08-03T11:55:14.633Z,33.88
2018-08-03T11:57:43.337Z,33.94
2018-08-03T12:00:12.208Z,34.41
2018-08-03T12:02:40.892Z,34.66
2018-08-03T12:05:09.656Z,34.60
2018-08-03T12:07:38.429Z,34.35
2018-08-03T12:10:07.147Z,33.56
2018-08-03T12:12:35.909Z,33.58
2018-08-03T12:15:04.621Z,33.30
2018-08-03T12:17:33.435Z,33.61
2018-08-03T12:20:02.151Z,33.86
2018-08-03T12:22:30.878Z,34.31
2018-08-03T12:24:59.559Z,34.34
2018-08-03T12:27:28.253Z,34.44
2018-08-03T12:29:56.950Z,34.87
2018-08-03T12:32:26.020Z,34.91
2018-08-03T12:34:55.170Z,35.24
2018-08-03T12:37:23.958Z,35.11
2018-08-03T12:39:52.659Z,35.24
2018-08-03T12:42:21.377Z,35.72
2018-08-03T12:44:50.055Z,36.10
2018-08-03T12:47:18.759Z,36.17
2018-08-03T12:49:47.504Z,36.06
2018-08-03T12:52:16.141Z,36.34
2018-08-03T12:54:44.860Z,36.51
2018-08-03T12:57:13.647Z,36.53
2018-08-03T12:59:42.421Z,36.59
2018-08-03T13:02:11.090Z,36.40
2018-08-03T13:04:39.886Z,36.56
2018-08-03T13:07:08.682Z,36.45
2018-08-03T13:09:39.462Z,36.22
2018-08-03T13:12:08.249Z,36.82
2018-08-03T13:14:37.108Z,36.52
2018-08-03T13:17:05.850Z,36.13
2018-08-03T13:19:34.574Z,36.77
2018-08-03T13:22:03.330Z,37.58
2018-08-03T13:24:32.023Z,38.01
2018-08-03T13:27:00.761Z,37.50
2018-08-03T13:29:29.539Z,37.23
2018-08-03T13:31:58.255Z,36.97
2018-08-03T13:34:27.023Z,37.37
2018-08-03T13:36:55.703Z,37.41
2018-08-03T13:39:24.482Z,37.63
2018-08-03T13:41:53.179Z,38.28
2018-08-03T13:44:21.893Z,38.56
2018-08-03T13:46:50.653Z,38.90
2018-08-03T13:49:19.256Z,39.25
2018-08-03T13:51:49.018Z,39.72
2018-08-03T13:54:18.301Z,40.08
2018-08-03T13:56:47.024Z,40.63
2018-08-03T13:59:15.717Z,41.15
2018-08-03T14:01:55.297Z,40.83
2018-08-03T14:04:23.996Z,40.33
2018-08-03T14:06:52.684Z,39.78
2018-08-03T14:09:21.330Z,39.24
2018-08-03T14:12:06.840Z,39.38
2018-08-03T14:15:42.627Z,39.95
2018-08-03T14:18:30.991Z,40.80
2018-08-03T14:20:59.667Z,41.32
2018-08-03T14:23:28.413Z,41.99
2018-08-03T14:25:57.041Z,42.36
2018-08-03T14:28:25.744Z,43.16
2018-08-03T14:30:54.563Z,43.85
2018-08-03T14:33:23.335Z,44.63
2018-08-03T14:35:52.344Z,45.57
2018-08-03T14:38:20.930Z,45.89
2018-08-03T14:40:49.639Z,46.64
2018-08-03T14:43:18.805Z,46.73
2018-08-03T14:45:47.803Z,46.16
2018-08-03T14:48:16.958Z,46.45
2018-08-03T14:50:45.827Z,46.64
2018-08-03T14:53:14.441Z,47.05
2018-08-03T14:55:43.051Z,46.83
2018-08-03T14:58:11.762Z,47.05
2018-08-03T15:00:41.329Z,47.21
2018-08-03T15:03:10.432Z,47.97
2018-08-03T15:05:39.636Z,48.27
2018-08-03T15:08:08.298Z,48.64
2018-08-03T15:10:36.880Z,47.80
2018-08-03T15:13:05.683Z,47.97
2018-08-03T15:15:34.289Z,45.93
2018-08-03T15:18:02.959Z,44.89
2018-08-03T15:20:31.673Z,46.19
2018-08-03T15:23:00.308Z,46.41
2018-08-03T15:25:28.942Z,45.64
2018-08-03T15:27:57.546Z,45.89
2018-08-03T15:30:26.141Z,46.41
2018-08-03T15:32:54.755Z,46.72
2018-08-03T15:35:23.449Z,46.93
2018-08-03T15:37:52.079Z,46.23
2018-08-03T15:40:20.715Z,46.56
2018-08-03T15:42:49.400Z,46.70
2018-08-03T15:45:18.002Z,47.07
2018-08-03T15:47:46.679Z,46.96
2018-08-03T15:50:15.294Z,46.21
2018-08-03T15:52:43.903Z,46.14
2018-08-03T15:55:12.545Z,47.51
2018-08-03T15:57:47.500Z,48.26
2018-08-03T16:00:16.182Z,48.50
2018-08-03T16:02:44.837Z,48.31
2018-08-03T16:05:13.454Z,48.14
2018-08-03T16:07:42.101Z,47.56
2018-08-03T16:10:10.863Z,46.94
2018-08-03T16:12:39.522Z,46.84
2018-08-03T16:15:08.390Z,46.96
2018-08-03T16:17:37.047Z,46.13
2018-08-03T16:20:06.174Z,46.11
2018-08-03T16:22:35.049Z,45.23
2018-08-03T16:25:07.333Z,45.66
2018-08-03T16:27:36.097Z,45.26
2018-08-03T16:30:05.388Z,45.17
2018-08-03T16:32:34.122Z,44.44
2018-08-03T16:35:02.907Z,44.99
2018-08-03T16:37:32.004Z,45.03
2018-08-03T16:40:00.678Z,44.99
2018-08-03T16:42:30.391Z,44.62
2018-08-03T16:44:59.113Z,43.67
2018-08-03T16:47:27.831Z,44.17
2018-08-03T16:49:56.596Z,45.16
2018-08-03T16:52:25.417Z,44.46
2018-08-03T16:54:54.106Z,44.25
2018-08-03T16:57:24.109Z,44.03
2018-08-03T16:59:52.984Z,43.28
2018-08-03T17:02:21.999Z,43.06
2018-08-03T17:04:50.736Z,43.09
2018-08-03T17:07:19.520Z,43.44
2018-08-03T17:09:48.224Z,44.00
2018-08-03T17:12:17.421Z,43.73
2018-08-03T17:14:46.078Z,43.90
2018-08-03T17:17:14.785Z,43.85
2018-08-03T17:19:43.586Z,43.60
2018-08-03T17:22:12.755Z,43.35
2018-08-03T17:24:41.570Z,42.62
2018-08-03T17:27:10.370Z,42.43
2018-08-03T17:29:39.404Z,42.03
2018-08-03T17:32:08.163Z,41.90
2018-08-03T17:34:36.920Z,41.60
2018-08-03T17:37:05.685Z,40.61
2018-08-03T17:39:34.427Z,39.64
2018-08-03T17:42:03.301Z,38.52
2018-08-03T17:44:31.978Z,37.38
2018-08-03T17:47:00.730Z,36.54
2018-08-03T17:49:29.459Z,35.85
2018-08-03T17:51:58.310Z,35.24
2018-08-03T17:54:27.181Z,34.73
2018-08-03T17:56:55.935Z,34.32
2018-08-03T17:59:24.646Z,33.84
2018-08-03T18:01:53.444Z,33.52
2018-08-03T18:04:22.116Z,33.13
2018-08-03T18:06:51.022Z,32.85
2018-08-03T18:09:19.820Z,32.61
2018-08-03T18:11:55.131Z,32.28
2018-08-03T18:14:24.012Z,32.07
2018-08-03T18:16:53.070Z,31.85
2018-08-03T18:19:21.712Z,31.67
2018-08-03T18:21:50.450Z,31.43
2018-08-03T18:24:19.188Z,31.16
2018-08-03T18:26:47.976Z,30.94
2018-08-03T18:29:19.932Z,30.72
2018-08-03T18:31:48.720Z,30.51
2018-08-03T18:34:17.454Z,30.29
2018-08-03T18:36:46.235Z,30.13
2018-08-03T18:39:14.926Z,29.96
2018-08-03T18:41:43.700Z,29.85
2018-08-03T18:44:12.646Z,29.68
2018-08-03T18:46:41.691Z,29.57
2018-08-03T18:49:11.194Z,29.45
2018-08-03T18:51:40.181Z,29.39
2018-08-03T18:54:09.265Z,29.29
2018-08-03T18:56:39.260Z,29.20
2018-08-03T18:59:08.064Z,29.12
2018-08-03T19:01:36.867Z,29.02
2018-08-03T19:04:05.575Z,28.91
2018-08-03T19:06:34.361Z,28.76
2018-08-03T19:09:03.158Z,28.65
2018-08-03T19:11:32.071Z,28.60
2018-08-03T19:14:00.789Z,28.51
2018-08-03T19:16:29.539Z,28.50
2018-08-03T19:18:58.327Z,28.50
2018-08-03T19:21:27.112Z,28.41
2018-08-03T19:23:55.921Z,28.32
2018-08-03T19:26:24.657Z,28.26
2018-08-03T19:28:53.486Z,28.20
2018-08-03T19:31:22.355Z,28.12
2018-08-03T19:33:51.070Z,28.03
2018-08-03T19:36:19.794Z,27.94
2018-08-03T19:38:48.484Z,27.95
2018-08-03T19:41:17.126Z,27.95
2018-08-03T19:43:45.770Z,27.96
2018-08-03T19:46:14.419Z,27.83
2018-08-03T19:48:43.110Z,27.81
2018-08-03T19:51:11.894Z,27.68
2018-08-03T19:53:40.581Z,27.58
2018-08-03T19:56:09.270Z,27.54
2018-08-03T19:58:37.986Z,27.49
2018-08-03T20:01:06.642Z,27.40
2018-08-03T20:03:35.898Z,27.29
2018-08-03T20:06:04.572Z,27.18
2018-08-03T20:08:33.271Z,27.10
2018-08-03T20:11:01.946Z,27.02
2018-08-03T20:13:30.669Z,26.93
2018-08-03T20:15:59.449Z,26.87
2018-08-03T20:18:29.078Z,26.84
2018-08-03T20:20:57.857Z,26.83
2018-08-03T20:23:26.578Z,26.76
2018-08-03T20:25:55.336Z,26.69
2018-08-03T20:28:24.118Z,26.63
2018-08-03T20:30:52.797Z,26.59
2018-08-03T20:33:21.494Z,26.54
2018-08-03T20:35:50.250Z,26.46
2018-08-03T20:38:19.143Z,26.40
2018-08-03T20:40:47.860Z,26.32
2018-08-03T20:43:16.537Z,26.27
2018-08-03T20:45:45.220Z,26.26
2018-08-03T20:48:14.183Z,26.28
2018-08-03T20:50:42.967Z,26.26
2018-08-03T20:53:11.735Z,26.17
2018-08-03T20:55:40.422Z,26.11
2018-08-03T20:58:09.214Z,26.04
2018-08-03T21:00:37.919Z,25.97
2018-08-03T21:03:06.700Z,25.88
2018-08-03T21:05:35.526Z,25.82
2018-08-03T21:08:04.213Z,25.81
2018-08-03T21:10:32.959Z,25.74
2018-08-03T21:13:01.690Z,25.68
2018-08-03T21:15:30.300Z,25.59
2018-08-03T21:17:58.953Z,25.52
2018-08-03T21:20:27.564Z,25.52
2018-08-03T21:22:56.171Z,25.49
2018-08-03T21:25:24.808Z,25.47
2018-08-03T21:27:53.421Z,25.38
2018-08-03T21:30:22.058Z,25.31
2018-08-03T21:32:50.698Z,25.25
2018-08-03T21:35:19.437Z,25.25
2018-08-03T21:37:49.257Z,25.30
2018-08-03T21:40:17.852Z,25.33
2018-08-03T21:42:46.521Z,25.35
2018-08-03T21:45:15.215Z,25.34
2018-08-03T21:47:43.869Z,25.30
2018-08-03T21:50:12.585Z,25.19
2018-08-03T21:52:41.210Z,25.09
2018-08-03T21:55:09.907Z,25.00
2018-08-03T21:57:38.534Z,24.94
2018-08-03T22:00:09.994Z,24.91
2018-08-03T22:02:38.662Z,25.00
2018-08-03T22:05:07.406Z,25.06
2018-08-03T22:07:35.994Z,25.08
2018-08-03T22:10:05.124Z,25.12
2018-08-03T22:12:33.743Z,25.13
2018-08-03T22:15:02.413Z,25.12
2018-08-03T22:17:31.115Z,25.06
2018-08-03T22:19:59.778Z,24.97
2018-08-03T22:22:28.454Z,24.90
2018-08-03T22:24:57.154Z,24.80
2018-08-03T22:27:25.832Z,24.78
2018-08-03T22:29:54.535Z,24.75
2018-08-03T22:32:23.209Z,24.68
2018-08-03T22:34:51.898Z,24.75
2018-08-03T22:37:20.687Z,24.79
2018-08-03T22:39:49.606Z,24.72
2018-08-03T22:42:18.277Z,24.61
2018-08-03T22:44:46.944Z,24.51
2018-08-03T22:47:15.666Z,24.41
2018-08-03T22:49:44.401Z,24.33
2018-08-03T22:52:13.174Z,24.25
2018-08-03T22:54:41.849Z,24.19
2018-08-03T22:57:10.649Z,24.14
2018-08-03T22:59:39.302Z,24.19
2018-08-03T23:02:08.990Z,24.19
2018-08-03T23:04:38.846Z,24.11
2018-08-03T23:07:07.638Z,24.05
2018-08-03T23:09:36.326Z,23.98
2018-08-03T23:12:04.994Z,24.07
2018-08-03T23:14:33.598Z,24.13
2018-08-03T23:17:02.264Z,24.07
2018-08-03T23:19:30.923Z,24.09
2018-08-03T23:21:59.614Z,24.14
2018-08-03T23:24:28.263Z,24.27
2018-08-03T23:26:56.902Z,24.26
2018-08-03T23:29:25.591Z,24.29
2018-08-03T23:31:54.278Z,24.34
2018-08-03T23:34:22.950Z,24.32
2018-08-03T23:36:51.641Z,24.29
2018-08-03T23:39:20.314Z,24.27
2018-08-03T23:41:49.005Z,24.26
2018-08-03T23:44:17.754Z,24.27
2018-08-03T23:46:46.410Z,24.26
2018-08-03T23:49:15.094Z,24.20
2018-08-03T23:51:43.895Z,24.20
2018-08-03T23:54:12.710Z,24.11
2018-08-03T23:56:41.318Z,24.12
2018-08-03T23:59:09.953Z,24.19
